Time;durP1;ratioP1;P1;durP2;ratioP2;P2;SDS_P1;SDS_P2;PMS_P1;PMS_P2;Temp;Humidity;BMP_temperature;BMP_pressure;BME280_temperature;BME280_humidity;BME280_pressure;Samples;Min_cycle;Max_cycle;Signal;HPM_P1;HPM_P2
2022/03/17 00:01:17;;;;;;;;;;;5.00;99.90;;;3.69;99.21;96235.25;10542453;28;1898;-74
2022/03/17 00:06:19;;;;;;;;;;;4.90;99.90;;;3.68;99.34;96230.97;10550098;28;1771;-73
2022/03/17 00:11:23;;;;;;;;;;;4.80;99.90;;;3.70;99.36;96223.59;10565220;28;1921;-76
2022/03/17 00:16:26;;;;;;;;;;;4.80;99.90;;;3.69;98.78;96227.28;10576664;28;2199;-75
2022/03/17 00:21:30;;;;;;;;;;;4.80;99.90;;;3.73;98.73;96228.47;10561691;28;2232;-75
2022/03/17 00:26:33;;;;;;;;;;;4.80;99.90;;;3.71;98.49;96223.38;10559899;28;1806;-77
2022/03/17 00:31:37;;;;;;;;;;;4.80;99.90;;;3.71;98.01;96220.72;10574428;28;1943;-75
2022/03/17 00:36:41;;;;;;;;;;;4.90;99.90;;;3.69;97.80;96228.09;10572973;28;1857;-78
2022/03/17 00:41:43;;;;;;;;;;;4.80;99.90;;;3.68;97.90;96218.47;10548086;28;1815;-73
2022/03/17 00:46:46;;;;;;;;;;;4.80;99.90;;;3.67;98.05;96216.03;10550610;28;1851;-77
2022/03/17 00:51:50;;;;;;;;;;;4.80;99.90;;;3.64;97.84;96208.53;10567487;28;1977;-77
2022/03/17 00:56:53;;;;;;;;;;;4.80;99.90;;;3.61;98.46;96211.59;10562918;28;1856;-75
2022/03/17 01:01:56;;;;;;;;;;;4.80;99.90;;;3.72;96.82;96216.22;10556315;28;1782;-76
2022/03/17 01:07:00;;;;;;;;;;;4.80;99.90;;;3.71;96.59;96210.09;10548748;28;1910;-77
2022/03/17 01:12:03;;;;;;;;;;;4.80;99.90;;;3.68;96.58;96210.50;10579064;28;1914;-76
2022/03/17 01:17:05;;;;;;;;;;;4.80;99.90;;;3.68;95.93;96210.50;10555933;28;1831;-76
2022/03/17 01:22:09;;;;;;;;;;;4.90;99.90;;;3.68;96.01;96196.41;10550326;28;1767;-77
2022/03/17 01:27:13;;;;;;;;;;;4.80;99.90;;;3.70;94.54;96197.00;10567108;28;1925;-76
2022/03/17 01:32:16;;;;;;;;;;;4.80;99.90;;;3.64;95.84;96188.06;10557898;28;1834;-75
2022/03/17 01:37:19;;;;;;;;;;;4.80;99.90;;;3.63;94.96;96191.75;10574695;28;2346;-75
2022/03/17 01:42:22;;;;;;;;;;;4.70;99.90;;;3.62;95.56;96179.47;10576854;28;1989;-75
2022/03/17 01:47:28;;;;;;;;;;;4.70;99.90;;;3.60;95.00;96181.56;10565382;28;2335;-78
2022/03/17 01:52:31;;;;;;;;;;;4.70;99.90;;;3.59;95.09;96181.78;10569283;28;2080;-76
2022/03/17 01:57:34;;;;;;;;;;;4.70;99.90;;;3.55;94.85;96172.59;10576565;28;1998;-75
2022/03/17 02:02:37;;;;;;;;;;;4.70;99.90;;;3.56;95.51;96175.03;10559691;28;2068;-76
2022/03/17 02:07:40;;;;;;;;;;;4.70;99.90;;;3.54;94.69;96166.47;10546432;28;2013;-76
2022/03/17 02:18:06;;;;;;;;;;;4.70;99.90;;;3.46;95.57;96166.78;10571409;28;1920;-74
2022/03/17 02:28:30;;;;;;;;;;;4.60;99.90;;;3.43;95.87;96145.94;10565820;28;2322;-76
2022/03/17 02:33:35;;;;;;;;;;;4.60;99.90;;;3.44;95.85;96160.88;10563191;28;1993;-75
2022/03/17 02:38:38;;;;;;;;;;;4.60;99.90;;;3.46;96.02;96146.31;10551310;28;1839;-75
2022/03/17 02:43:41;;;;;;;;;;;4.80;99.90;;;3.44;96.06;96156.38;10542245;27;1992;-75
2022/03/17 02:48:44;;;;;;;;;;;4.60;99.90;;;3.44;95.67;96160.88;10567940;27;2128;-73
2022/03/17 02:53:48;;;;;;;;;;;4.60;99.90;;;3.43;96.03;96165.34;10551862;28;1920;-75
2022/03/17 02:58:51;;;;;;;;;;;4.50;99.90;;;3.37;96.84;96162.75;10552039;28;1891;-76
2022/03/17 03:03:54;;;;;;;;;;;4.50;99.90;;;3.41;95.81;96172.72;10561972;28;1914;-74
2022/03/17 03:08:58;;;;;;;;;;;4.50;99.90;;;3.38;96.18;96177.69;10553450;28;1916;-76
2022/03/17 03:14:01;;;;;;;;;;;4.50;99.90;;;3.42;96.28;96173.53;10579002;28;1899;-76
2022/03/17 03:19:04;;;;;;;;;;;4.60;99.90;;;3.45;95.98;96167.81;10575134;28;1800;-77
2022/03/17 03:24:07;;;;;;;;;;;4.90;99.90;;;3.41;95.87;96171.94;10561763;28;1911;-76
2022/03/17 03:29:14;;;;;;;;;;;4.60;99.90;;;3.41;96.51;96166.59;10572193;28;1989;-73
2022/03/17 03:34:17;;;;;;;;;;;4.50;99.90;;;3.39;96.14;96185.44;10576896;28;1923;-76
2022/03/17 03:39:20;;;;;;;;;;;4.50;99.90;;;3.47;96.15;96194.97;10543209;28;1780;-77
2022/03/17 03:44:23;;;;;;;;;;;4.60;99.90;;;3.44;96.45;96200.72;10542271;28;1877;-75
2022/03/17 03:49:26;;;;;;;;;;;4.60;99.90;;;3.40;95.80;96196.88;10551084;28;1944;-76
2022/03/17 03:54:29;;;;;;;;;;;4.60;99.90;;;3.36;96.79;96201.00;10554711;28;1794;-76
2022/03/17 03:59:32;;;;;;;;;;;4.50;99.90;;;3.33;96.78;96190.81;10568207;27;1908;-75
2022/03/17 04:04:35;;;;;;;;;;;4.50;99.90;;;3.24;97.82;96191.09;10587882;28;1599;-78
2022/03/17 04:09:39;;;;;;;;;;;4.50;99.90;;;3.24;98.30;96191.09;10594473;28;1898;-74
2022/03/17 04:14:42;;;;;;;;;;;4.60;99.90;;;3.16;98.02;96186.03;10597560;28;1480;-76
2022/03/17 04:19:50;;;;;;;;;;;4.50;99.90;;;3.07;99.17;96182.03;10553046;28;1736;-76
2022/03/17 04:24:53;;;;;;;;;;;4.30;99.90;;;3.11;99.41;96199.13;10563171;28;1796;-73
2022/03/17 04:29:57;;;;;;;;;;;;;;;3.13;99.67;96196.28;10561227;28;1905;-75
2022/03/17 04:35:02;;;;;;;;;;;;;;;3.10;99.60;96202.81;10543804;28;1756;-76
2022/03/17 04:40:06;;;;;;;;;;;;;;;3.04;99.97;96214.31;10545630;28;1863;-74
2022/03/17 04:45:09;;;;;;;;;;;;;;;3.03;99.91;96207.38;10545172;28;1814;-75
2022/03/17 04:50:13;;;;;;;;;;;;;;;3.01;100.00;96214.75;10550033;28;1913;-77
2022/03/17 04:55:16;;;;;;;;;;;;;;;2.94;100.00;96208.69;10536831;28;2324;-74
2022/03/17 05:00:19;;;;;;;;;;;4.10;99.90;;;2.88;100.00;96206.88;10536711;28;1915;-75
2022/03/17 05:05:23;;;;;;;;;;;;;;;2.80;100.00;96223.88;10552856;28;2013;-78
2022/03/17 05:10:28;;;;;;;;;;;;;;;2.81;100.00;96216.75;10618801;28;1890;-77
2022/03/17 05:15:37;;;;;;;;;;;;;;;2.85;100.00;96226.69;10607724;28;1968;-73
2022/03/17 05:20:40;;;;;;;;;;;3.80;99.90;;;2.81;100.00;96236.13;10567966;28;2093;-76
2022/03/17 05:25:43;;;;;;;;;;;3.80;99.90;;;2.81;100.00;96245.94;10541392;28;2213;-76
2022/03/17 05:30:46;;;;;;;;;;;3.80;99.90;;;2.84;100.00;96261.44;10538038;28;2228;-74
2022/03/17 05:35:50;;;;;;;;;;;3.70;99.90;;;2.81;100.00;96261.88;10547362;28;2259;-76
2022/03/17 05:40:53;;;;;;;;;;;;;;;2.88;100.00;96267.97;10561263;28;1913;-74
2022/03/17 05:45:58;;;;;;;;;;;;;;;2.98;100.00;96273.59;10563095;28;2068;-73
2022/03/17 05:51:01;;;;;;;;;;;;;;;2.97;100.00;96272.78;10540268;28;1962;-76
2022/03/17 05:56:04;;;;;;;;;;;;;;;2.97;100.00;96271.97;10565855;28;1870;-77
2022/03/17 06:01:08;;;;;;;;;;;;;;;3.07;100.00;96288.28;10553739;28;1841;-73
2022/03/17 06:06:11;;;;;;;;;;;;;;;3.09;100.00;96286.22;10567999;28;1909;-78
2022/03/17 06:11:15;;;;;;;;;;;;;;;3.30;100.00;96297.50;10585807;28;2204;-75
2022/03/17 06:16:19;;;;;;;;;;;;;;;3.42;99.75;96311.75;10568197;28;1992;-75
2022/03/17 06:21:26;;;;;;;;;;;;;;;3.61;97.97;96297.50;10559890;28;1843;-77
2022/03/17 06:26:29;;;;;;;;;;;;;;;3.64;98.30;96306.91;10580986;28;1846;-76
2022/03/17 06:31:32;;;;;;;;;;;;;;;3.63;97.69;96311.41;10594262;28;2235;-77
2022/03/17 06:36:36;;;;;;;;;;;;;;;3.64;97.92;96310.34;10555943;28;1872;-76
2022/03/17 06:41:39;;;;;;;;;;;;;;;3.79;97.33;96316.16;10541352;28;1891;-72
2022/03/17 06:46:43;;;;;;;;;;;;;;;4.17;95.46;96307.22;10565601;28;1886;-76
2022/03/17 06:51:47;;;;;;;;;;;;;;;4.58;93.10;96308.41;10550295;28;1910;-77
2022/03/17 06:56:50;;;;;;;;;;;;;;;4.73;90.48;96314.19;10543482;28;2007;-75
2022/03/17 07:01:53;;;;;;;;;;;;;;;4.60;91.34;96320.47;10561727;28;1811;-76
2022/03/17 07:06:57;;;;;;;;;;;;;;;4.49;91.28;96325.72;10550413;28;1843;-74
2022/03/17 07:12:00;;;;;;;;;;;;;;;4.62;90.55;96322.91;10547030;28;2300;-75
2022/03/17 07:17:04;;;;;;;;;;;;;;;4.84;89.94;96325.94;10559562;28;1885;-77
2022/03/17 07:22:07;;;;;;;;;;;;;;;4.96;89.08;96333.97;10546223;28;1910;-75
2022/03/17 07:27:11;;;;;;;;;;;;;;;5.30;87.69;96346.66;10557302;28;1899;-77
2022/03/17 07:32:14;;;;;;;;;;;;;;;5.48;85.27;96345.81;10563745;28;1993;-73
2022/03/17 07:37:18;;;;;;;;;;;;;;;5.61;84.59;96342.94;10545683;28;1846;-74
2022/03/17 07:42:21;;;;;;;;;;;;;;;5.97;82.99;96347.31;10561457;28;1824;-73
2022/03/17 07:47:25;;;;;;;;;;;;;;;5.84;82.34;96358.16;10560887;28;1851;-75
2022/03/17 07:52:28;;;;;;;;;;;;;;;5.97;81.91;96357.97;10543334;27;1984;-78
2022/03/17 07:57:35;;;;;;;;;;;;;;;6.01;80.96;96352.19;10561356;28;1948;-76
2022/03/17 08:02:40;;;;;;;;;;;;;;;6.09;79.45;96359.88;10539801;28;1862;-78
2022/03/17 08:07:44;;;;;;;;;;;;;;;6.77;78.30;96370.75;10561710;28;1870;-76
2022/03/17 08:12:50;;;;;;;;;;;;;;;7.22;75.30;96372.75;10562805;28;1930;-75
2022/03/17 08:17:53;;;;;;;;;;;;;;;7.08;74.87;96370.59;10567946;28;1906;-76
2022/03/17 08:22:56;;;;;;;;;;;;;;;6.91;75.50;96383.88;10577788;28;1952;-75
2022/03/17 08:28:02;;;;;;;;;;;;;;;7.07;74.57;96379.66;10584489;28;1827;-76
2022/03/17 08:33:05;;;;;;;;;;;;;;;7.61;71.22;96383.66;10548085;28;1976;-76
2022/03/17 08:38:09;;;;;;;;;;;;;;;7.41;71.43;96389.44;10572625;28;1861;-76
2022/03/17 08:43:12;;;;;;;;;;;;;;;7.40;72.31;96392.34;10574814;28;1839;-77
2022/03/17 08:53:37;;;;;;;;;;;;;;;8.10;71.93;96405.41;10578996;28;1991;-75
2022/03/17 08:58:40;;;;;;;;;;;8.80;99.90;;;8.47;68.47;96407.63;10576393;28;1769;-76
2022/03/17 09:03:43;;;;;;;;;;;8.90;99.90;;;8.25;68.93;96420.91;10574136;28;1846;-75
2022/03/17 09:08:47;;;;;;;;;;;9.00;99.90;;;8.22;69.55;96413.38;10551113;28;1986;-76
2022/03/17 09:13:52;;;;;;;;;;;9.10;99.90;;;8.29;68.96;96412.16;10570160;28;1987;-76
2022/03/17 09:18:58;;;;;;;;;;;9.10;99.90;;;8.17;69.03;96418.63;10570910;28;1819;-76
2022/03/17 09:24:01;;;;;;;;;;;9.00;99.90;;;8.08;68.18;96427.06;10567499;28;2076;-78
2022/03/17 09:29:04;;;;;;;;;;;9.00;99.90;;;8.41;68.38;96425.50;10555158;28;1913;-78
2022/03/17 09:34:08;;;;;;;;;;;9.10;99.90;;;8.51;66.07;96422.97;10556474;28;1966;-76
2022/03/17 09:44:32;;;;;;;;;;;9.30;99.90;;;8.27;67.35;96424.13;10594326;28;1448;-77
2022/03/17 09:49:36;;;;;;;;;;;9.20;99.90;;;8.85;66.97;96426.44;10570176;28;2011;-78
2022/03/17 09:54:39;;;;;;;;;;;9.30;99.90;;;8.35;67.10;96431.78;10564370;28;1875;-76
2022/03/17 09:59:43;;;;;;;;;;;9.60;99.90;;;8.80;66.98;96439.75;10583886;28;1860;-77
2022/03/17 10:04:46;;;;;;;;;;;9.60;99.90;;;9.07;65.49;96450.59;10557462;28;1920;-77
2022/03/17 10:09:49;;;;;;;;;;;9.70;99.90;;;9.09;65.61;96445.78;10567948;28;1910;-77
2022/03/17 10:14:52;;;;;;;;;;;9.80;99.90;;;9.35;63.52;96451.47;10593610;28;1796;-78
2022/03/17 10:19:55;;;;;;;;;;;10.20;99.90;;;9.48;63.15;96448.47;10564073;28;1664;-76
2022/03/17 10:24:58;;;;;;;;;;;10.30;99.90;;;9.28;64.33;96451.66;10584499;28;1788;-78
2022/03/17 10:30:00;;;;;;;;;;;10.00;99.90;;;9.52;63.90;96440.69;10572459;27;1952;-75
2022/03/17 10:35:03;;;;;;;;;;;10.10;99.90;;;9.86;62.43;96441.34;10593625;27;1828;-76
2022/03/17 10:40:08;;;;;;;;;;;10.40;99.90;;;9.88;62.54;96450.78;10563481;28;1852;-75
2022/03/17 10:45:12;;;;;;;;;;;10.60;99.90;;;10.15;61.21;96447.28;10582249;28;1943;-76
2022/03/17 10:50:16;;;;;;;;;;;10.90;99.90;;;10.25;60.14;96450.94;10587220;28;1890;-76
2022/03/17 10:55:19;;;;;;;;;;;11.00;99.90;;;10.18;61.50;96450.28;10569378;28;1926;-77
2022/03/17 11:00:22;;;;;;;;;;;11.00;99.90;;;10.64;60.37;96463.34;10581115;27;1791;-76
2022/03/17 11:05:27;;;;;;;;;;;11.30;99.90;;;10.97;58.74;96462.25;10585553;28;1854;-77
2022/03/17 11:10:30;;;;;;;;;;;11.60;99.90;;;10.62;59.58;96463.59;10579877;27;1994;-76
2022/03/17 11:15:34;;;;;;;;;;;11.50;99.90;;;10.30;60.46;96466.25;10595290;28;1431;-77
2022/03/17 11:20:37;;;;;;;;;;;11.20;99.90;;;10.55;59.69;96471.06;10564585;28;1903;-75
2022/03/17 11:25:41;;;;;;;;;;;11.40;99.90;;;10.49;59.98;96466.69;10569670;28;1837;-75
2022/03/17 11:30:45;;;;;;;;;;;11.40;99.90;;;10.61;60.13;96461.97;10581576;28;1926;-78
2022/03/17 11:35:48;;;;;;;;;;;11.40;99.90;;;10.91;59.40;96457.88;10594701;28;1844;-76
2022/03/17 11:40:52;;;;;;;;;;;11.50;99.90;;;11.05;59.55;96461.75;10604518;28;1830;-78
2022/03/17 11:46:08;;;;;;;;;;;11.80;99.90;;;11.60;58.86;96455.03;10602215;28;1885;-77
2022/03/17 11:51:11;;;;;;;;;;;12.10;99.90;;;11.23;58.30;96450.56;10580258;28;1913;-77
2022/03/17 11:56:15;;;;;;;;;;;12.20;99.90;;;11.00;58.84;96453.63;10553224;28;1816;-77
2022/03/17 12:01:19;;;;;;;;;;;12.20;99.90;;;10.56;60.37;96461.94;10570193;28;1905;-75
2022/03/17 12:06:22;;;;;;;;;;;11.80;99.90;;;10.59;61.24;96464.09;10581822;28;1847;-77
2022/03/17 12:11:26;;;;;;;;;;;11.70;99.90;;;10.69;60.75;96460.72;10559456;28;1910;-76
2022/03/17 12:16:30;;;;;;;;;;;11.70;99.90;;;11.07;60.16;96456.94;10573356;27;2188;-76
2022/03/17 12:21:33;;;;;;;;;;;11.80;99.90;;;10.88;59.95;96453.84;10568588;28;1965;-77
2022/03/17 12:26:37;;;;;;;;;;;11.90;99.90;;;11.33;58.80;96449.81;10607054;28;1819;-78
2022/03/17 12:31:41;;;;;;;;;;;12.00;99.90;;;10.98;59.93;96447.72;10594128;28;1898;-78
2022/03/17 12:36:44;;;;;;;;;;;12.20;99.90;;;10.81;61.03;96458.63;10581628;28;1791;-77
2022/03/17 12:41:47;;;;;;;;;;;12.00;99.90;;;10.73;61.07;96457.22;10574612;28;1589;-77
2022/03/17 12:46:50;;;;;;;;;;;12.00;99.90;;;10.60;62.72;96457.66;10564108;28;1815;-77
2022/03/17 12:51:54;;;;;;;;;;;11.60;99.90;;;10.80;61.87;96452.44;10567963;28;1967;-77
2022/03/17 12:56:57;;;;;;;;;;;11.70;99.90;;;10.72;61.58;96447.53;10567561;28;1571;-80
2022/03/17 13:02:00;;;;;;;;;;;11.80;99.90;;;10.88;61.34;96448.47;10568690;28;1834;-78
2022/03/17 13:07:03;;;;;;;;;;;11.80;99.90;;;10.62;63.21;96450.13;10553193;28;1914;-77
2022/03/17 13:17:27;;;;;;;;;;;11.50;99.90;;;10.22;65.23;96461.31;10552282;28;1811;-76
2022/03/17 13:22:32;;;;;;;;;;;11.40;99.90;;;10.37;65.25;96455.31;10557234;28;1813;-76
2022/03/17 13:27:35;;;;;;;;;;;11.40;99.90;;;10.07;66.52;96459.31;10572422;28;1838;-77
2022/03/17 13:32:39;;;;;;;;;;;11.30;99.90;;;10.20;66.26;96453.53;10557016;28;1971;-77
2022/03/17 13:37:44;;;;;;;;;;;11.20;99.90;;;10.15;67.05;96466.91;10565496;28;1993;-78
2022/03/17 13:42:57;;;;;;;;;;;11.30;99.90;;;10.26;66.01;96463.28;10587390;28;1791;-75
2022/03/17 13:48:01;;;;;;;;;;;11.30;99.90;;;10.05;67.14;96474.84;10565044;28;1828;-77
2022/03/17 13:53:05;;;;;;;;;;;11.20;99.90;;;10.18;66.59;96474.47;10573809;28;1929;-78
2022/03/17 13:58:08;;;;;;;;;;;11.20;99.90;;;9.94;67.30;96478.50;10564665;28;1974;-75
2022/03/17 14:03:11;;;;;;;;;;;11.10;99.90;;;9.78;67.56;96466.78;10579728;28;1831;-77
2022/03/17 14:08:15;;;;;;;;;;;11.00;99.90;;;9.60;68.91;96472.47;10568687;27;1949;-77
2022/03/17 14:13:20;;;;;;;;;;;10.80;99.90;;;9.37;71.16;96477.03;10579157;28;2129;-76
2022/03/17 14:18:23;;;;;;;;;;;10.60;99.90;;;9.25;72.28;96473.63;10577510;28;1836;-76
2022/03/17 14:28:47;;;;;;;;;;;10.60;99.90;;;9.42;71.95;96484.34;10563504;28;1828;-77
2022/03/17 14:33:50;;;;;;;;;;;10.50;99.90;;;9.26;74.02;96490.53;10562356;28;1914;-76
2022/03/17 14:38:55;;;;;;;;;;;10.40;99.90;;;9.25;74.22;96500.47;10575569;27;1828;-77
2022/03/17 14:43:59;;;;;;;;;;;10.30;99.90;;;9.08;75.85;96494.31;10560852;27;2203;-78
2022/03/17 14:49:04;;;;;;;;;;;10.30;99.90;;;9.00;76.50;96502.78;10614177;27;1827;-78
2022/03/17 14:54:07;;;;;;;;;;;10.20;99.90;;;8.97;77.17;96509.47;10576612;27;1902;-77
2022/03/17 14:59:11;;;;;;;;;;;10.20;99.90;;;9.09;76.55;96507.47;10554332;28;2118;-76
2022/03/17 15:04:14;;;;;;;;;;;10.20;99.90;;;9.17;76.35;96511.63;10578926;27;1595;-74
2022/03/17 15:09:18;;;;;;;;;;;10.20;99.90;;;8.94;77.39;96524.16;10551176;27;2065;-75
2022/03/17 15:14:21;;;;;;;;;;;10.20;99.90;;;8.80;78.38;96524.72;10556409;28;1921;-77
2022/03/17 15:19:24;;;;;;;;;;;10.00;99.90;;;8.80;78.14;96530.09;10568835;28;1788;-76
2022/03/17 15:24:27;;;;;;;;;;;9.90;99.90;;;8.60;79.18;96526.03;10551705;28;1862;-77
2022/03/17 15:34:50;;;;;;;;;;;9.70;99.90;;;8.66;79.96;96543.00;10568304;28;1921;-78
2022/03/17 15:39:53;;;;;;;;;;;9.60;99.90;;;8.57;80.70;96561.31;10566901;28;1863;-75
2022/03/17 15:44:56;;;;;;;;;;;9.70;99.90;;;8.64;80.15;96559.31;10548186;28;1565;-75
2022/03/17 15:50:00;;;;;;;;;;;9.70;99.90;;;8.57;80.49;96561.31;10552882;28;1857;-78
2022/03/17 15:55:03;;;;;;;;;;;9.80;99.90;;;8.70;79.37;96578.16;10557446;28;1914;-75
2022/03/17 16:00:07;;;;;;;;;;;9.70;99.90;;;8.57;80.77;96580.09;10550216;28;2188;-78
2022/03/17 16:05:12;;;;;;;;;;;9.70;99.90;;;8.55;80.81;96574.16;10551275;28;2426;-77
2022/03/17 16:15:37;;;;;;;;;;;9.70;99.90;;;8.39;81.82;96585.66;10553335;28;2043;-77
2022/03/17 16:20:40;;;;;;;;;;;9.60;99.90;;;8.28;81.96;96587.31;10548471;28;1569;-79
2022/03/17 16:25:43;;;;;;;;;;;9.50;99.90;;;8.22;82.40;96593.63;10572480;28;1914;-77
2022/03/17 16:30:46;;;;;;;;;;;9.40;99.90;;;8.30;82.28;96600.47;10570185;28;1874;-76
2022/03/17 16:35:50;;;;;;;;;;;9.40;99.90;;;8.30;81.65;96600.47;10548688;28;1848;-77
2022/03/17 16:40:54;;;;;;;;;;;9.40;99.90;;;8.13;82.29;96603.06;10570497;28;1732;-76
2022/03/17 16:45:57;;;;;;;;;;;9.30;99.90;;;7.99;82.90;96609.75;10544801;28;1794;-78
2022/03/17 16:51:00;;;;;;;;;;;9.20;99.90;;;7.93;82.65;96611.50;10546531;28;1979;-80
2022/03/17 16:56:03;;;;;;;;;;;9.10;99.90;;;7.90;82.65;96622.69;10561210;28;2270;-77
2022/03/17 17:01:06;;;;;;;;;;;9.10;99.90;;;7.93;83.58;96630.25;10541393;28;2273;-78
2022/03/17 17:06:09;;;;;;;;;;;9.10;99.90;;;7.85;84.78;96635.97;10572164;28;1984;-76
2022/03/17 17:11:14;;;;;;;;;;;9.00;99.90;;;7.69;85.66;96634.00;10569128;28;1965;-76
2022/03/17 17:16:17;;;;;;;;;;;8.90;99.90;;;7.64;86.33;96639.25;10550356;27;1910;-77
2022/03/17 17:21:21;;;;;;;;;;;8.80;99.90;;;7.64;86.68;96650.78;10537932;28;1920;-77
2022/03/17 17:31:48;;;;;;;;;;;8.80;99.90;;;7.67;86.18;96660.19;10551483;28;1906;-78
2022/03/17 17:36:52;;;;;;;;;;;8.80;99.90;;;7.66;85.09;96659.38;10562601;27;1922;-76
2022/03/17 17:41:57;;;;;;;;;;;8.70;99.90;;;7.62;85.66;96668.09;10556257;27;1878;-76
2022/03/17 17:47:00;;;;;;;;;;;8.70;99.90;;;7.60;85.90;96676.34;10547381;28;2026;-76
2022/03/17 17:52:03;;;;;;;;;;;8.70;99.90;;;7.57;86.98;96682.16;10568183;28;1930;-77
2022/03/17 17:57:07;;;;;;;;;;;8.70;99.90;;;7.57;87.23;96685.66;10566988;28;2108;-76
2022/03/17 18:02:11;;;;;;;;;;;8.70;99.90;;;7.52;87.71;96690.91;10550429;28;1959;-76
2022/03/17 18:07:14;;;;;;;;;;;8.60;99.90;;;7.54;87.32;96691.47;10569354;28;2162;-76
2022/03/17 18:12:18;;;;;;;;;;;8.60;99.90;;;7.48;88.05;96697.75;10549376;28;1891;-77
2022/03/17 18:17:21;;;;;;;;;;;8.60;99.90;;;7.48;87.86;96700.41;10551159;28;2022;-76
2022/03/17 18:22:24;;;;;;;;;;;8.60;99.90;;;7.51;87.84;96708.00;10603365;28;1882;-76
2022/03/17 18:27:28;;;;;;;;;;;8.60;99.90;;;7.52;88.52;96709.63;10564223;28;1894;-75
2022/03/17 18:32:34;;;;;;;;;;;8.60;99.90;;;7.42;89.26;96712.03;10552211;22;2514;-68
2022/03/17 18:37:39;;;;;;;;;;;8.50;99.90;;;7.45;89.18;96722.31;10527985;28;1853;-69
2022/03/17 18:42:42;;;;;;;;;;;8.50;99.90;;;7.45;89.32;96726.84;10544127;28;1974;-69
2022/03/17 18:47:45;;;;;;;;;;;8.50;99.90;;;7.42;90.17;96730.78;10542152;28;2276;-69
2022/03/17 18:52:48;;;;;;;;;;;8.50;99.90;;;7.51;89.79;96740.09;10526291;28;1909;-69
2022/03/17 18:57:56;;;;;;;;;;;8.50;99.90;;;7.47;90.52;96748.81;10548328;28;1906;-68
2022/03/17 19:03:00;;;;;;;;;;;8.50;99.90;;;7.44;90.17;96758.09;10520001;28;1919;-67
2022/03/17 19:08:04;;;;;;;;;;;8.50;99.90;;;7.43;90.85;96761.81;10538927;28;1847;-70
2022/03/17 19:13:07;;;;;;;;;;;8.50;99.90;;;7.30;91.64;96762.03;10528655;28;1917;-70
2022/03/17 19:18:11;;;;;;;;;;;8.40;99.90;;;7.22;91.57;96770.38;10523231;28;2187;-68
2022/03/17 19:23:14;;;;;;;;;;;8.40;99.90;;;7.23;92.28;96772.81;10520688;28;1847;-68
2022/03/17 19:28:17;;;;;;;;;;;8.40;99.90;;;7.29;91.82;96782.59;10542635;28;1976;-67
2022/03/17 19:33:20;;;;;;;;;;;8.40;99.90;;;7.35;92.69;96782.75;10534737;28;2099;-69
2022/03/17 19:38:23;;;;;;;;;;;8.40;99.90;;;7.35;92.36;96786.22;10541860;28;1866;-69
2022/03/17 19:43:26;;;;;;;;;;;8.50;99.90;;;7.38;91.82;96796.50;10521188;28;1839;-68
2022/03/17 19:48:30;;;;;;;;;;;8.40;99.90;;;7.24;93.45;96809.22;10542757;28;1894;-68
2022/03/17 19:53:35;;;;;;;;;;;8.40;99.90;;;7.19;93.30;96806.44;10523277;28;1919;-68
2022/03/17 19:58:38;;;;;;;;;;;8.30;99.90;;;7.23;93.18;96815.59;10525935;28;1907;-69
2022/03/17 20:03:41;;;;;;;;;;;8.30;99.90;;;7.17;93.38;96818.38;10536415;28;1977;-69
2022/03/17 20:08:46;;;;;;;;;;;8.30;99.90;;;7.18;94.22;96822.66;10549293;28;2009;-69
2022/03/17 20:13:49;;;;;;;;;;;8.30;99.90;;;7.13;94.26;96827.91;10545264;28;1975;-70
2022/03/17 20:18:52;;;;;;;;;;;8.20;99.90;;;7.13;94.11;96831.41;10543595;28;1416;-69
2022/03/17 20:23:56;;;;;;;;;;;8.20;99.90;;;7.16;93.69;96833.59;10523689;28;1863;-70
2022/03/17 20:28:59;;;;;;;;;;;8.20;99.90;;;7.00;94.39;96847.59;10543734;28;1871;-68
2022/03/17 20:34:26;;;;;;;;;;;8.10;99.90;;;7.00;95.26;96851.09;10538263;28;1962;-69
2022/03/17 20:39:28;;;;;;;;;;;8.10;99.90;;;6.97;95.81;96854.19;10559553;28;1884;-70
2022/03/17 20:44:32;;;;;;;;;;;8.30;99.90;;;6.88;95.81;96860.91;10578784;28;1590;-69
2022/03/17 20:49:35;;;;;;;;;;;8.10;99.90;;;6.84;96.06;96866.91;10542190;28;2000;-70
2022/03/17 20:54:41;;;;;;;;;;;8.00;99.90;;;6.83;95.94;96867.94;10539958;28;1922;-71
2022/03/17 20:59:44;;;;;;;;;;;8.00;99.90;;;6.82;96.16;96872.47;10557539;28;1993;-69
2022/03/17 21:04:47;;;;;;;;;;;7.90;99.90;;;6.85;96.76;96881.91;10530754;28;1911;-69
2022/03/17 21:09:50;;;;;;;;;;;7.90;99.90;;;6.84;96.79;96880.28;10529051;28;1848;-70
2022/03/17 21:14:54;;;;;;;;;;;7.90;99.90;;;6.86;96.97;96884.34;10551370;28;1914;-68
2022/03/17 21:19:57;;;;;;;;;;;7.90;99.90;;;6.81;96.66;96892.22;10536650;28;1828;-70
2022/03/17 21:25:00;;;;;;;;;;;8.00;99.90;;;6.79;96.45;96899.63;10533443;28;1934;-68
2022/03/17 21:30:03;;;;;;;;;;;7.90;99.90;;;6.81;97.08;96902.91;10541608;28;1890;-70
2022/03/17 21:35:07;;;;;;;;;;;7.90;99.90;;;6.69;97.88;96907.38;10548049;28;2314;-70
2022/03/17 21:40:11;;;;;;;;;;;7.90;99.90;;;6.64;97.99;96907.19;10545735;28;1859;-69
2022/03/17 21:45:15;;;;;;;;;;;7.70;99.90;;;6.73;97.75;96912.03;10553217;28;1998;-68
2022/03/17 21:50:18;;;;;;;;;;;7.80;99.90;;;6.71;98.24;96918.63;10528342;28;1764;-69
2022/03/17 21:55:21;;;;;;;;;;;7.80;99.90;;;6.66;98.15;96916.63;10549893;28;1994;-69
2022/03/17 22:00:26;;;;;;;;;;;7.70;99.90;;;6.51;98.49;96918.84;10525656;28;1845;-69
2022/03/17 22:05:29;;;;;;;;;;;7.70;99.90;;;6.48;98.40;96917.41;10523404;28;1867;-70
2022/03/17 22:10:32;;;;;;;;;;;7.70;99.90;;;6.43;99.37;96919.94;10531148;28;2007;-68
2022/03/17 22:15:35;;;;;;;;;;;7.60;99.90;;;6.37;99.20;96912.78;10551133;28;1978;-70
2022/03/17 22:20:38;;;;;;;;;;;7.50;99.90;;;6.33;99.29;96922.28;10530051;28;1935;-71
2022/03/17 22:25:41;;;;;;;;;;;7.50;99.90;;;6.34;100.00;96926.56;10533570;28;1907;-70
2022/03/17 22:30:44;;;;;;;;;;;7.50;99.90;;;6.33;99.55;96922.28;10536905;28;1864;-70
2022/03/17 22:35:47;;;;;;;;;;;7.50;99.90;;;6.27;99.70;96925.81;10540180;28;1950;-69
2022/03/17 22:46:11;;;;;;;;;;;7.40;99.90;;;6.21;100.00;96934.69;10526113;28;1853;-68
2022/03/17 22:51:14;;;;;;;;;;;7.40;99.90;;;6.23;100.00;96940.63;10547790;28;1878;-69
2022/03/17 22:56:17;;;;;;;;;;;7.40;99.90;;;6.15;100.00;96935.56;10535264;28;1912;-69
2022/03/17 23:01:21;;;;;;;;;;;7.30;99.90;;;6.15;100.00;96941.72;10545328;28;1862;-69
2022/03/17 23:06:24;;;;;;;;;;;7.30;99.90;;;6.12;100.00;96944.00;10536662;28;1820;-70
2022/03/17 23:11:27;;;;;;;;;;;7.30;99.90;;;6.12;100.00;96946.69;10527647;28;1881;-70
2022/03/17 23:16:31;;;;;;;;;;;7.20;99.90;;;6.09;100.00;96947.09;10546293;22;2604;-74
2022/03/17 23:21:36;;;;;;;;;;;7.30;99.90;;;6.10;100.00;96951.41;10548585;27;1860;-75
2022/03/17 23:26:39;;;;;;;;;;;7.20;99.90;;;6.09;100.00;96953.25;10530075;28;1843;-74
2022/03/17 23:31:44;;;;;;;;;;;7.20;99.90;;;6.10;100.00;96951.41;10526606;28;1881;-74
2022/03/17 23:36:48;;;;;;;;;;;7.20;99.90;;;6.07;100.00;96957.19;10504639;28;1979;-76
2022/03/17 23:41:51;;;;;;;;;;;7.20;99.90;;;6.14;100.00;96955.28;10507526;28;1829;-74
2022/03/17 23:46:55;;;;;;;;;;;7.20;99.90;;;6.08;100.00;96959.63;10509273;28;1889;-75
2022/03/17 23:57:19;;;;;;;;;;;7.20;99.90;;;6.09;100.00;96961.25;10514572;28;1983;-75
